createdAt,value
2018-11-14T00:00:29.714Z,11.00
2018-11-14T00:03:32.644Z,11.00
2018-11-14T00:06:35.635Z,11.10
2018-11-14T00:09:38.754Z,11.10
2018-11-14T00:12:41.615Z,11.00
2018-11-14T00:15:44.566Z,11.00
2018-11-14T00:18:47.513Z,10.90
2018-11-14T00:21:50.492Z,11.00
2018-11-14T00:24:53.666Z,11.00
2018-11-14T00:27:56.497Z,11.00
2018-11-14T00:30:59.427Z,11.00
2018-11-14T00:34:02.484Z,11.10
2018-11-14T00:37:06.072Z,11.00
2018-11-14T00:40:11.289Z,11.00
2018-11-14T00:43:14.276Z,10.90
2018-11-14T00:46:17.221Z,10.90
2018-11-14T00:49:20.196Z,10.90
2018-11-14T00:52:23.149Z,10.80
2018-11-14T00:55:26.090Z,10.70
2018-11-14T00:58:29.021Z,10.70
2018-11-14T01:01:32.041Z,10.80
2018-11-14T01:04:34.961Z,10.80
2018-11-14T01:07:38.085Z,10.70
2018-11-14T01:10:41.046Z,10.60
2018-11-14T01:13:43.993Z,10.70
2018-11-14T01:16:46.949Z,10.70
2018-11-14T01:19:49.933Z,10.60
2018-11-14T01:22:52.975Z,10.60
2018-11-14T01:25:55.913Z,10.70
2018-11-14T01:28:59.218Z,10.60
2018-11-14T01:32:02.246Z,10.70
2018-11-14T01:35:06.327Z,10.60
2018-11-14T01:38:09.329Z,10.60
2018-11-14T01:41:12.309Z,10.60
2018-11-14T01:44:15.384Z,10.40
2018-11-14T01:47:18.312Z,10.50
2018-11-14T01:50:21.264Z,10.50
2018-11-14T01:53:24.199Z,10.40
2018-11-14T01:56:27.174Z,10.40
2018-11-14T01:59:30.113Z,10.40
2018-11-14T02:02:33.060Z,10.40
2018-11-14T02:05:36.034Z,10.40
2018-11-14T02:08:39.029Z,10.30
2018-11-14T02:11:41.980Z,10.20
2018-11-14T02:14:45.026Z,10.30
2018-11-14T02:17:47.994Z,10.40
2018-11-14T02:20:50.994Z,10.50
2018-11-14T02:23:53.907Z,10.50
2018-11-14T02:26:56.906Z,10.50
2018-11-14T02:30:00.045Z,10.50
2018-11-14T02:33:03.026Z,10.50
2018-11-14T02:36:06.257Z,10.50
2018-11-14T02:39:09.208Z,10.40
2018-11-14T02:42:12.180Z,10.30
2018-11-14T02:45:15.469Z,10.30
2018-11-14T02:48:18.465Z,10.40
2018-11-14T02:51:26.465Z,10.30
2018-11-14T02:54:29.501Z,10.30
2018-11-14T02:57:32.459Z,10.30
2018-11-14T03:00:35.446Z,10.30
2018-11-14T03:03:38.373Z,10.30
2018-11-14T03:06:41.385Z,10.30
2018-11-14T03:09:44.295Z,10.30
2018-11-14T03:12:47.254Z,10.40
2018-11-14T03:15:50.169Z,10.50
2018-11-14T03:18:53.115Z,10.30
2018-11-14T03:21:56.265Z,10.30
2018-11-14T03:24:59.201Z,10.30
2018-11-14T03:28:02.214Z,10.10
2018-11-14T03:31:05.970Z,10.20
2018-11-14T03:34:08.887Z,10.30
2018-11-14T03:37:11.893Z,10.40
2018-11-14T03:40:15.951Z,10.30
2018-11-14T03:43:18.917Z,10.20
2018-11-14T03:46:21.878Z,10.30
2018-11-14T03:49:24.848Z,10.30
2018-11-14T03:52:27.770Z,10.20
2018-11-14T03:55:30.714Z,10.20
2018-11-14T03:58:33.763Z,10.10
2018-11-14T04:01:36.622Z,10.00
2018-11-14T04:04:39.618Z,10.00
2018-11-14T04:07:42.606Z,10.10
2018-11-14T04:10:45.506Z,10.00
2018-11-14T04:13:48.492Z,10.00
2018-11-14T04:16:51.438Z,9.90
2018-11-14T04:19:54.365Z,10.00
2018-11-14T04:22:57.345Z,10.00
2018-11-14T04:26:00.285Z,10.00
2018-11-14T04:29:03.279Z,10.00
2018-11-14T04:32:06.472Z,10.10
2018-11-14T04:35:13.785Z,10.00
2018-11-14T04:38:16.716Z,10.00
2018-11-14T04:41:19.720Z,10.00
2018-11-14T04:44:22.614Z,9.90
2018-11-14T04:47:25.565Z,9.90
2018-11-14T04:50:28.477Z,10.00
2018-11-14T04:53:31.444Z,9.90
2018-11-14T04:56:34.372Z,10.10
2018-11-14T04:59:37.347Z,10.10
2018-11-14T05:02:41.298Z,10.00
2018-11-14T05:05:44.192Z,10.00
2018-11-14T05:08:47.114Z,9.90
2018-11-14T05:11:50.034Z,9.80
2018-11-14T05:14:52.947Z,9.90
2018-11-14T05:17:56.195Z,9.80
2018-11-14T05:20:59.118Z,9.80
2018-11-14T05:24:02.105Z,9.80
2018-11-14T05:27:05.409Z,9.70
2018-11-14T05:30:17.960Z,9.60
2018-11-14T05:33:20.897Z,9.60
2018-11-14T05:36:23.866Z,9.70
2018-11-14T05:39:26.842Z,9.70
2018-11-14T05:42:29.805Z,9.70
2018-11-14T05:45:32.815Z,9.60
2018-11-14T05:48:35.762Z,9.70
2018-11-14T05:51:38.710Z,9.80
2018-11-14T05:54:41.708Z,9.80
2018-11-14T05:57:44.711Z,9.90
2018-11-14T06:00:47.738Z,9.70
2018-11-14T06:03:50.925Z,9.70
2018-11-14T06:06:53.929Z,9.80
2018-11-14T06:09:56.878Z,9.80
2018-11-14T06:12:59.838Z,9.80
2018-11-14T06:16:02.860Z,9.90
2018-11-14T06:19:05.956Z,9.90
2018-11-14T06:22:08.957Z,9.70
2018-11-14T06:25:26.460Z,9.80
2018-11-14T06:28:29.494Z,9.80
2018-11-14T06:31:32.488Z,9.80
2018-11-14T06:34:35.454Z,9.80
2018-11-14T06:37:38.391Z,9.80
2018-11-14T06:40:41.350Z,9.70
2018-11-14T06:43:44.898Z,9.90
2018-11-14T06:46:47.871Z,9.70
2018-11-14T06:49:51.235Z,9.70
2018-11-14T06:52:55.931Z,9.70
2018-11-14T06:55:59.116Z,9.80
2018-11-14T06:59:02.161Z,9.80
2018-11-14T07:02:05.368Z,9.80
2018-11-14T07:05:11.394Z,9.80
2018-11-14T07:08:14.430Z,9.90
2018-11-14T07:11:17.317Z,9.90
2018-11-14T07:14:20.277Z,9.90
2018-11-14T07:17:23.218Z,9.90
2018-11-14T07:20:27.540Z,9.80
2018-11-14T07:23:30.483Z,9.80
2018-11-14T07:26:33.358Z,9.80
2018-11-14T07:29:36.273Z,9.80
2018-11-14T07:32:40.426Z,9.90
2018-11-14T07:35:43.364Z,14.10
2018-11-14T07:38:48.282Z,16.20
2018-11-14T07:41:51.228Z,16.60
2018-11-14T07:44:54.137Z,16.30
2018-11-14T07:47:57.188Z,15.10
2018-11-14T07:51:00.136Z,14.90
2018-11-14T07:54:03.209Z,14.70
2018-11-14T07:57:06.215Z,14.20
2018-11-14T08:00:16.292Z,14.20
2018-11-14T08:03:19.292Z,14.50
2018-11-14T08:06:22.258Z,14.70
2018-11-14T08:09:25.249Z,15.10
2018-11-14T08:12:28.178Z,15.20
2018-11-14T08:15:31.133Z,15.20
2018-11-14T08:18:34.231Z,15.10
2018-11-14T08:21:37.182Z,14.70
2018-11-14T08:24:40.838Z,15.10
2018-11-14T08:27:44.012Z,14.70
2018-11-14T08:30:47.427Z,14.80
2018-11-14T08:33:50.960Z,14.50
2018-11-14T08:36:53.957Z,14.90
2018-11-14T08:39:56.964Z,14.30
2018-11-14T08:43:00.012Z,14.60
2018-11-14T08:46:03.017Z,14.70
2018-11-14T08:49:06.062Z,14.80
2018-11-14T08:52:09.011Z,14.80
2018-11-14T08:55:12.898Z,14.90
2018-11-14T08:58:15.868Z,14.70
2018-11-14T09:01:18.826Z,15.20
2018-11-14T09:04:21.777Z,15.70
2018-11-14T09:07:24.789Z,15.80
2018-11-14T09:10:27.699Z,15.50
2018-11-14T09:13:30.622Z,15.40
2018-11-14T09:16:33.590Z,15.60
2018-11-14T09:19:36.529Z,15.60
2018-11-14T09:22:39.497Z,15.70
2018-11-14T09:25:42.434Z,15.50
2018-11-14T09:28:45.373Z,14.90
2018-11-14T09:31:48.283Z,13.70
2018-11-14T09:34:51.194Z,15.90
2018-11-14T09:37:55.269Z,16.00
2018-11-14T09:40:58.264Z,14.30
2018-11-14T09:44:01.206Z,13.70
2018-11-14T09:47:04.271Z,12.80
2018-11-14T09:50:10.606Z,12.40
2018-11-14T09:53:13.597Z,12.60
2018-11-14T09:56:16.537Z,16.90
2018-11-14T09:59:19.491Z,17.60
2018-11-14T10:02:22.417Z,17.90
2018-11-14T10:05:25.503Z,17.20
2018-11-14T10:08:28.440Z,15.40
2018-11-14T10:11:31.389Z,14.20
2018-11-14T10:14:34.353Z,13.50
2018-11-14T10:17:37.307Z,13.20
2018-11-14T10:20:40.271Z,12.90
2018-11-14T10:23:43.304Z,12.80
2018-11-14T10:26:46.198Z,12.60
2018-11-14T10:29:49.152Z,12.60
2018-11-14T10:32:52.617Z,12.40
2018-11-14T10:35:55.545Z,12.30
2018-11-14T10:38:58.521Z,12.30
2018-11-14T10:42:01.478Z,12.30
2018-11-14T10:45:05.441Z,12.40
2018-11-14T10:48:08.370Z,12.40
2018-11-14T10:51:11.417Z,12.40
2018-11-14T10:54:14.266Z,12.50
2018-11-14T10:57:17.217Z,12.50
2018-11-14T11:00:31.254Z,12.50
2018-11-14T11:03:36.287Z,12.50
2018-11-14T11:06:44.833Z,13.10
2018-11-14T11:09:53.565Z,13.70
2018-11-14T11:13:02.121Z,13.50
2018-11-14T11:16:10.898Z,15.80
2018-11-14T11:19:14.729Z,17.10
2018-11-14T11:22:17.613Z,16.90
2018-11-14T11:25:20.572Z,14.90
2018-11-14T11:28:23.577Z,14.00
2018-11-14T11:31:26.544Z,13.40
2018-11-14T11:34:29.469Z,13.50
2018-11-14T11:37:32.498Z,13.10
2018-11-14T11:40:35.492Z,13.00
2018-11-14T11:43:38.402Z,13.00
2018-11-14T11:46:42.377Z,13.00
2018-11-14T11:49:45.343Z,12.90
2018-11-14T11:52:48.311Z,12.90
2018-11-14T11:55:51.248Z,13.00
2018-11-14T11:58:54.292Z,13.00
2018-11-14T12:01:57.298Z,13.00
2018-11-14T12:05:00.293Z,13.10
2018-11-14T12:08:03.304Z,13.00
2018-11-14T12:11:06.533Z,12.90
2018-11-14T12:14:09.477Z,12.90
2018-11-14T12:17:12.869Z,13.00
2018-11-14T12:20:15.885Z,13.00
2018-11-14T12:23:18.904Z,13.60
2018-11-14T12:26:21.818Z,13.30
2018-11-14T12:29:24.694Z,13.20
2018-11-14T12:32:27.594Z,13.10
2018-11-14T12:35:30.635Z,12.90
2018-11-14T12:38:33.590Z,12.90
2018-11-14T12:41:36.525Z,12.90
2018-11-14T12:44:39.478Z,12.80
2018-11-14T12:47:42.394Z,12.80
2018-11-14T12:50:45.393Z,12.80
2018-11-14T12:53:48.358Z,12.90
2018-11-14T12:56:51.282Z,12.90
2018-11-14T12:59:54.361Z,12.90
2018-11-14T13:02:57.249Z,12.90
2018-11-14T13:06:00.193Z,15.90
2018-11-14T13:09:04.467Z,17.40
2018-11-14T13:12:07.373Z,15.20
2018-11-14T13:15:11.564Z,13.90
2018-11-14T13:18:14.518Z,13.40
2018-11-14T13:21:17.509Z,13.20
2018-11-14T13:24:20.457Z,13.00
2018-11-14T13:27:23.468Z,13.00
2018-11-14T13:30:26.503Z,13.00
2018-11-14T13:33:29.927Z,12.90
2018-11-14T13:36:32.889Z,13.00
2018-11-14T13:39:35.885Z,13.00
2018-11-14T13:42:38.936Z,12.90
2018-11-14T13:45:41.865Z,12.90
2018-11-14T13:48:44.905Z,12.90
2018-11-14T13:51:47.781Z,12.90
2018-11-14T13:54:50.690Z,13.00
2018-11-14T13:57:53.645Z,12.90
2018-11-14T14:00:56.557Z,12.80
2018-11-14T14:03:59.473Z,12.70
2018-11-14T14:07:02.476Z,12.80
2018-11-14T14:10:07.059Z,16.20
2018-11-14T14:13:09.966Z,17.70
2018-11-14T14:16:12.934Z,17.60
2018-11-14T14:19:16.209Z,16.30
2018-11-14T14:22:19.193Z,14.90
2018-11-14T14:25:22.774Z,14.10
2018-11-14T14:28:25.825Z,13.70
2018-11-14T14:31:29.149Z,13.50
2018-11-14T14:34:33.067Z,13.30
2018-11-14T14:37:37.039Z,13.10
2018-11-14T14:40:41.257Z,13.00
2018-11-14T14:43:46.142Z,12.80
2018-11-14T14:46:49.949Z,12.70
2018-11-14T14:49:53.786Z,12.50
2018-11-14T14:52:56.702Z,12.40
2018-11-14T14:56:00.704Z,12.20
2018-11-14T14:59:05.009Z,12.20
2018-11-14T15:02:09.855Z,12.20
2018-11-14T15:05:14.395Z,12.10
2018-11-14T15:08:19.377Z,12.10
2018-11-14T15:11:23.488Z,12.00
2018-11-14T15:14:27.459Z,12.00
2018-11-14T15:17:31.788Z,11.90
2018-11-14T15:20:35.207Z,11.90
2018-11-14T15:23:39.129Z,11.70
2018-11-14T15:26:43.127Z,11.70
2018-11-14T15:29:47.460Z,11.50
2018-11-14T15:32:51.342Z,11.40
2018-11-14T15:35:55.359Z,11.30
2018-11-14T15:38:59.163Z,11.20
2018-11-14T15:42:03.139Z,11.10
2018-11-14T15:45:13.135Z,10.90
2018-11-14T15:48:17.292Z,10.80
2018-11-14T15:51:21.355Z,10.80
2018-11-14T15:54:25.343Z,10.90
2018-11-14T15:57:29.527Z,10.90
2018-11-14T16:00:33.835Z,10.90
2018-11-14T16:03:37.803Z,10.90
2018-11-14T16:06:42.098Z,10.70
2018-11-14T16:09:46.998Z,10.70
2018-11-14T16:12:50.989Z,10.50
2018-11-14T16:15:55.550Z,10.50
2018-11-14T16:19:00.464Z,10.60
2018-11-14T16:22:04.640Z,10.70
2018-11-14T16:25:11.643Z,10.70
2018-11-14T16:28:15.465Z,10.50
2018-11-14T16:31:19.492Z,10.50
2018-11-14T16:34:23.473Z,10.50
2018-11-14T16:37:27.868Z,10.50
2018-11-14T16:40:33.085Z,10.60
2018-11-14T16:43:37.028Z,10.50
2018-11-14T16:46:40.951Z,10.30
2018-11-14T16:49:45.056Z,10.30
2018-11-14T16:52:49.353Z,10.30
2018-11-14T16:55:53.241Z,10.20
2018-11-14T16:58:57.911Z,10.30
2018-11-14T17:02:02.426Z,10.30
2018-11-14T17:05:07.864Z,10.40
2018-11-14T17:08:12.298Z,10.30
2018-11-14T17:11:16.942Z,10.30
2018-11-14T17:14:24.100Z,10.10
2018-11-14T17:17:28.018Z,10.10
2018-11-14T17:20:33.010Z,10.10
2018-11-14T17:23:38.002Z,10.00
2018-11-14T17:26:42.184Z,10.10
2018-11-14T17:29:46.936Z,10.10
2018-11-14T17:32:51.337Z,10.10
2018-11-14T17:35:56.268Z,10.10
2018-11-14T17:39:00.543Z,10.00
2018-11-14T17:42:05.006Z,10.00
2018-11-14T17:45:16.501Z,10.00
2018-11-14T17:48:21.511Z,10.00
2018-11-14T17:51:25.608Z,9.90
2018-11-14T17:54:29.505Z,10.10
2018-11-14T17:57:34.152Z,10.10
2018-11-14T18:00:38.140Z,10.10
2018-11-14T18:03:42.406Z,10.10
2018-11-14T18:06:47.262Z,10.20
2018-11-14T18:09:51.930Z,12.50
2018-11-14T18:12:57.484Z,11.90
2018-11-14T18:16:01.570Z,11.40
2018-11-14T18:19:05.972Z,10.90
2018-11-14T18:22:10.460Z,10.60
2018-11-14T18:25:15.150Z,10.30
2018-11-14T18:28:19.435Z,10.30
2018-11-14T18:31:23.450Z,10.30
2018-11-14T18:34:27.412Z,10.10
2018-11-14T18:37:31.389Z,10.10
2018-11-14T18:40:35.646Z,10.00
2018-11-14T18:43:40.264Z,10.00
2018-11-14T18:46:44.348Z,10.00
2018-11-14T18:49:48.623Z,9.90
2018-11-14T18:52:55.660Z,9.80
2018-11-14T18:55:59.483Z,9.90
2018-11-14T18:59:04.254Z,10.00
2018-11-14T19:02:08.385Z,10.00
2018-11-14T19:05:13.222Z,10.10
2018-11-14T19:08:17.751Z,10.10
2018-11-14T19:11:22.050Z,10.10
2018-11-14T19:14:26.849Z,10.10
2018-11-14T19:17:30.806Z,10.10
2018-11-14T19:20:35.771Z,10.10
2018-11-14T19:23:41.592Z,10.00
2018-11-14T19:26:45.546Z,10.10
2018-11-14T19:29:49.468Z,10.00
2018-11-14T19:32:54.701Z,9.90
2018-11-14T19:35:59.272Z,9.90
2018-11-14T19:39:04.954Z,9.90
2018-11-14T19:42:09.823Z,10.10
2018-11-14T19:45:18.551Z,10.00
2018-11-14T19:48:22.720Z,9.90
2018-11-14T19:51:26.787Z,9.90
2018-11-14T19:54:32.791Z,9.70
2018-11-14T19:57:37.264Z,9.70
2018-11-14T20:00:41.912Z,9.60
2018-11-14T20:03:49.483Z,9.40
2018-11-14T20:06:53.678Z,9.60
2018-11-14T20:09:57.777Z,9.70
2018-11-14T20:13:02.465Z,9.70
2018-11-14T20:16:06.532Z,9.60
2018-11-14T20:19:13.425Z,9.50
2018-11-14T20:22:17.531Z,9.60
2018-11-14T20:25:21.538Z,9.80
2018-11-14T20:28:25.818Z,9.60
2018-11-14T20:31:29.938Z,9.60
2018-11-14T20:34:33.961Z,9.50
2018-11-14T20:37:38.137Z,11.90
2018-11-14T20:40:44.244Z,10.80
2018-11-14T20:43:49.320Z,10.20
2018-11-14T20:46:54.237Z,9.90
2018-11-14T20:50:00.137Z,9.50
2018-11-14T20:53:05.231Z,9.40
2018-11-14T20:56:13.235Z,9.40
2018-11-14T20:59:17.205Z,9.20
2018-11-14T21:02:21.132Z,9.20
2018-11-14T21:05:26.671Z,9.20
2018-11-14T21:08:31.611Z,9.20
2018-11-14T21:11:35.554Z,9.20
2018-11-14T21:14:39.422Z,9.20
2018-11-14T21:17:43.404Z,9.10
2018-11-14T21:20:47.248Z,9.10
2018-11-14T21:23:51.059Z,9.10
2018-11-14T21:26:54.944Z,9.20
2018-11-14T21:29:59.114Z,9.10
2018-11-14T21:33:03.117Z,8.90
2018-11-14T21:36:07.692Z,9.00
2018-11-14T21:39:13.402Z,9.20
2018-11-14T21:42:17.306Z,8.90
2018-11-14T21:45:22.466Z,8.90
2018-11-14T21:48:26.464Z,8.90
2018-11-14T21:51:30.303Z,8.90
2018-11-14T21:54:35.096Z,8.90
2018-11-14T21:58:42.728Z,9.00
2018-11-14T22:01:47.443Z,9.20
2018-11-14T22:04:53.012Z,9.30
2018-11-14T22:07:58.144Z,9.30
2018-11-14T22:11:02.095Z,9.30
2018-11-14T22:14:06.546Z,9.40
2018-11-14T22:17:10.653Z,9.40
2018-11-14T22:20:16.219Z,9.40
2018-11-14T22:23:19.997Z,9.40
2018-11-14T22:26:24.272Z,9.50
2018-11-14T22:29:28.691Z,9.40
2018-11-14T22:32:32.469Z,9.40
2018-11-14T22:35:36.499Z,9.50
2018-11-14T22:38:41.042Z,9.50
2018-11-14T22:41:44.838Z,9.60
2018-11-14T22:44:50.403Z,9.40
2018-11-14T22:47:54.408Z,9.40
2018-11-14T22:50:58.293Z,9.50
2018-11-14T22:54:02.197Z,9.50
2018-11-14T22:57:06.708Z,9.40
2018-11-14T23:00:20.812Z,9.50
2018-11-14T23:03:24.788Z,9.50
2018-11-14T23:06:29.108Z,9.60
2018-11-14T23:09:33.091Z,9.60
2018-11-14T23:12:36.882Z,9.70
2018-11-14T23:15:40.767Z,9.60
2018-11-14T23:18:44.580Z,9.70
2018-11-14T23:21:48.410Z,9.60
2018-11-14T23:24:52.234Z,9.60
2018-11-14T23:27:56.490Z,9.50
2018-11-14T23:31:00.964Z,9.50
2018-11-14T23:34:05.090Z,9.60
2018-11-14T23:37:08.989Z,9.40
2018-11-14T23:40:12.965Z,9.30
2018-11-14T23:43:17.642Z,9.40
2018-11-14T23:46:22.443Z,9.50
2018-11-14T23:49:26.891Z,9.30
2018-11-14T23:52:30.744Z,9.40
2018-11-14T23:55:34.545Z,9.30
2018-11-14T23:58:38.413Z,9.20
